Time;durP1;ratioP1;P1;durP2;ratioP2;P2;SDS_P1;SDS_P2;PMS_P1;PMS_P2;Temp;Humidity;BMP_temperature;BMP_pressure;BME280_temperature;BME280_humidity;BME280_pressure;Samples;Min_cycle;Max_cycle;Signal;HPM_P1;HPM_P2
2022/09/27 00:00:40;;;;;;;1.75;1.08;;;15.40;88.10;;;;;;4941280;29;20098;-64
2022/09/27 00:03:08;;;;;;;0.93;0.73;;;15.40;88.10;;;;;;4923738;29;20112;-65
2022/09/27 00:05:34;;;;;;;1.02;1.00;;;15.40;88.10;;;;;;4940010;29;20106;-67
2022/09/27 00:08:00;;;;;;;3.88;1.23;;;15.40;88.10;;;;;;4939235;29;20466;-64
2022/09/27 00:20:10;;;;;;;1.25;0.90;;;15.40;88.10;;;;;;4994652;28;20029;-65
2022/09/27 00:29:09;;;;;;;6.75;0.90;;;15.40;88.20;;;;;;5000386;28;20357;-65
2022/09/27 00:31:36;;;;;;;1.10;0.88;;;15.40;88.20;;;;;;5001490;28;20044;-65
2022/09/27 00:34:03;;;;;;;1.00;0.82;;;15.40;88.20;;;;;;5011432;28;20518;-65
2022/09/27 00:36:33;;;;;;;0.93;0.82;;;15.40;88.20;;;;;;5002501;28;20037;-66
2022/09/27 00:39:01;;;;;;;1.60;1.02;;;15.40;88.30;;;;;;4985290;28;20029;-64
2022/09/27 00:41:28;;;;;;;7.43;0.80;;;15.40;88.30;;;;;;4996848;28;20384;-65
2022/09/27 00:43:56;;;;;;;0.95;0.80;;;15.40;88.30;;;;;;4979217;28;20026;-65
2022/09/27 00:46:36;;;;;;;1.50;0.80;;;15.40;88.30;;;;;;5002703;28;20113;-64
2022/09/27 00:49:12;;;;;;;1.23;0.90;;;15.40;88.30;;;;;;4992858;28;20023;-65
2022/09/27 00:51:40;;;;;;;2.75;0.90;;;15.40;88.30;;;;;;5001042;28;20034;-65
2022/09/27 00:54:12;;;;;;;0.70;0.63;;;15.40;88.40;;;;;;4997928;28;20477;-65
2022/09/27 00:56:38;;;;;;;0.65;0.65;;;15.40;88.40;;;;;;4998931;28;20026;-65
2022/09/27 00:59:17;;;;;;;1.08;0.93;;;15.40;88.40;;;;;;4985263;28;20499;-65
2022/09/27 01:01:43;;;;;;;2.50;0.70;;;15.40;88.40;;;;;;5001087;28;20072;-65
2022/09/27 01:07:35;;;;;;;1.27;0.80;;;15.40;88.40;;;;;;5003332;28;20057;-65
2022/09/27 01:10:01;;;;;;;1.00;0.90;;;15.40;88.50;;;;;;5008055;28;20026;-66
2022/09/27 01:12:48;;;;;;;2.55;1.10;;;15.40;88.50;;;;;;4998653;28;20051;-66
2022/09/27 01:15:26;;;;;;;0.60;0.60;;;15.40;88.50;;;;;;4975324;28;20125;-65
2022/09/27 01:22:15;;;;;;;0.70;0.70;;;15.40;88.50;;;;;;4944327;29;20516;-64
2022/09/27 01:28:55;;;;;;;0.68;0.68;;;15.40;88.60;;;;;;4934521;29;20037;-65
2022/09/27 01:31:29;;;;;;;3.13;0.45;;;15.30;88.50;;;;;;4915225;29;20024;-64
2022/09/27 03:22:55;;;;;;;1.30;0.47;;;15.30;88.80;;;;;;4882478;29;20650;-65
2022/09/27 03:43:25;;;;;;;1.10;0.80;;;15.20;88.80;;;;;;4885384;28;20051;-65
2022/09/27 03:45:51;;;;;;;0.73;0.70;;;15.20;88.80;;;;;;4962170;28;20489;-65
2022/09/27 06:01:14;;;;;;;4.55;1.48;;;15.10;88.60;;;;;;5018821;28;20465;-65
2022/09/27 06:03:40;;;;;;;98.65;12.43;;;15.10;88.60;;;;;;5021602;28;20057;-65
2022/09/27 06:06:06;;;;;;;8.43;1.90;;;15.00;88.50;;;;;;5013843;28;20030;-65
2022/09/27 06:36:08;;;;;;;4.10;1.13;;;15.10;88.50;;;;;;4955657;28;20432;-65
2022/09/27 11:00:01;;;;;;;;;;;;;;;;;;;;;
2022/09/27 11:43:52;;;;;;;6.25;1.08;;;15.60;86.50;;;;;;4996385;28;20034;-64
2022/09/27 11:46:32;;;;;;;2.15;0.55;;;15.60;86.60;;;;;;4991439;28;20022;-65
2022/09/27 11:49:31;;;;;;;3.38;0.80;;;15.60;86.70;;;;;;4991522;28;20033;-65
2022/09/27 11:58:37;;;;;;;4.05;0.80;;;15.60;86.70;;;;;;4994726;28;20101;-66
2022/09/27 12:08:09;;;;;;;1.70;1.05;;;15.60;86.60;;;;;;4983370;28;20069;-65
2022/09/27 12:10:41;;;;;;;0.73;0.50;;;15.60;86.50;;;;;;4975415;28;20132;-64
2022/09/27 13:15:00;;;;;;;8.27;1.27;;;15.60;86.40;;;;;;5014308;28;20053;-65
2022/09/27 13:17:39;;;;;;;1.67;0.60;;;15.60;86.30;;;;;;5004054;28;20033;-65
2022/09/27 15:15:01;;;;;;;0.55;0.45;;;15.50;85.60;;;;;;4979482;28;20037;-64
2022/09/27 15:17:27;;;;;;;0.73;0.50;;;15.50;85.50;;;;;;4990643;28;20050;-67
2022/09/27 15:20:17;;;;;;;0.40;0.40;;;15.50;85.60;;;;;;4990562;28;20026;-67
2022/09/27 15:22:43;;;;;;;0.30;0.30;;;15.50;85.30;;;;;;4989453;28;20089;-67
2022/09/27 15:25:23;;;;;;;0.32;0.32;;;15.40;84.60;;;;;;4987749;28;20031;-67
2022/09/27 15:27:54;;;;;;;1.80;0.43;;;15.40;84.20;;;;;;4987663;28;20042;-67
2022/09/27 15:30:26;;;;;;;0.45;0.45;;;15.40;83.90;;;;;;4989439;28;20464;-66
2022/09/27 15:32:55;;;;;;;2.90;0.60;;;15.30;83.70;;;;;;4972397;28;20046;-67
2022/09/27 15:35:26;;;;;;;0.60;0.60;;;15.30;83.50;;;;;;4978783;28;20455;-64
2022/09/27 15:38:14;;;;;;;2.47;1.15;;;15.30;83.70;;;;;;4987877;28;20605;-65
2022/09/27 16:29:56;;;;;;;2.92;0.60;;;15.30;83.50;;;;;;5011264;28;20050;-65
2022/09/27 16:32:22;;;;;;;1.75;0.60;;;15.20;83.50;;;;;;5011790;28;20080;-65
2022/09/27 16:34:48;;;;;;;0.93;0.77;;;15.20;83.50;;;;;;4993597;28;20033;-65
2022/09/27 16:37:14;;;;;;;0.50;0.50;;;15.20;83.60;;;;;;5003713;28;20029;-65
2022/09/27 16:39:39;;;;;;;0.60;0.60;;;15.20;83.70;;;;;;4986259;28;20087;-65
2022/09/27 16:42:08;;;;;;;1.80;0.80;;;15.30;83.70;;;;;;5011364;28;20025;-65
2022/09/27 16:44:34;;;;;;;1.88;1.10;;;15.20;83.70;;;;;;5003341;28;20029;-65
2022/09/27 16:47:21;;;;;;;2.67;0.90;;;15.20;83.70;;;;;;5000904;28;20033;-65
2022/09/27 16:52:51;;;;;;;1.33;1.13;;;15.20;83.90;;;;;;5005776;28;20048;-66
2022/09/27 16:55:18;;;;;;;0.77;0.70;;;15.20;83.90;;;;;;5005887;28;20046;-65
2022/09/27 16:57:44;;;;;;;0.77;0.68;;;15.20;83.90;;;;;;5010976;28;20038;-65
2022/09/27 17:00:11;;;;;;;5.20;1.30;;;15.20;83.90;;;;;;4990652;28;20030;-65
2022/09/27 17:02:36;;;;;;;0.98;0.80;;;15.10;83.90;;;;;;4991093;28;20026;-66
2022/09/27 17:05:02;;;;;;;1.33;0.70;;;15.10;84.00;;;;;;5006868;28;20570;-65
2022/09/27 17:07:28;;;;;;;1.55;1.30;;;15.10;84.00;;;;;;5005265;28;20188;-65
2022/09/27 17:09:54;;;;;;;2.63;1.52;;;15.10;84.00;;;;;;5008547;28;20400;-66
2022/09/27 17:12:19;;;;;;;1.92;1.00;;;15.10;84.10;;;;;;5004336;28;20130;-66
2022/09/27 17:14:45;;;;;;;1.73;0.88;;;15.10;84.10;;;;;;4988996;28;20026;-66
2022/09/27 17:17:11;;;;;;;2.03;1.00;;;15.10;84.10;;;;;;4991817;28;20037;-65
2022/09/27 17:19:39;;;;;;;1.80;1.00;;;15.10;84.10;;;;;;4993449;28;20464;-66
2022/09/27 17:22:06;;;;;;;4.18;1.55;;;15.10;84.20;;;;;;4993247;28;20486;-66
2022/09/27 17:24:33;;;;;;;2.92;1.17;;;15.10;84.20;;;;;;5008825;28;20152;-66
2022/09/27 17:26:59;;;;;;;1.55;1.20;;;15.10;84.30;;;;;;5008699;28;20041;-65
2022/09/27 17:29:24;;;;;;;4.22;2.50;;;15.00;84.20;;;;;;5004609;28;20049;-65
2022/09/27 17:31:50;;;;;;;3.45;2.42;;;15.00;84.20;;;;;;4978412;28;20026;-65
2022/09/27 17:41:13;;;;;;;0.70;0.68;;;15.10;84.40;;;;;;4951443;29;20102;-65
2022/09/27 17:43:45;;;;;;;2.17;0.95;;;15.00;84.40;;;;;;4950016;29;20031;-65
2022/09/27 17:46:11;;;;;;;0.75;0.75;;;15.00;84.40;;;;;;4932804;29;20039;-65
2022/09/27 17:51:21;;;;;;;0.60;0.60;;;15.00;84.50;;;;;;4950231;29;20106;-66
2022/09/27 17:53:48;;;;;;;2.83;0.80;;;15.00;84.50;;;;;;4944760;28;20075;-65
2022/09/27 17:56:15;;;;;;;1.05;0.70;;;15.00;84.50;;;;;;4931442;29;20631;-65
2022/09/27 17:58:46;;;;;;;1.02;0.70;;;15.00;84.50;;;;;;4949175;29;20027;-65
2022/09/27 18:07:32;;;;;;;5.50;1.20;;;15.00;84.60;;;;;;4953633;29;20086;-66
2022/09/27 18:09:58;;;;;;;1.98;0.90;;;15.00;84.60;;;;;;4952508;28;20095;-65
2022/09/27 18:12:30;;;;;;;1.98;0.85;;;15.00;84.60;;;;;;4953864;29;20031;-66
2022/09/27 18:14:56;;;;;;;3.60;1.05;;;15.00;84.60;;;;;;5003238;28;20030;-65
2022/09/27 18:17:22;;;;;;;1.60;1.08;;;15.00;84.60;;;;;;5013006;28;20022;-65
2022/09/27 18:19:48;;;;;;;3.83;0.93;;;15.00;84.70;;;;;;4996153;28;20036;-65
2022/09/27 18:22:13;;;;;;;1.75;0.80;;;15.00;84.70;;;;;;5003642;28;20030;-66
2022/09/27 18:24:39;;;;;;;0.93;0.75;;;15.00;84.70;;;;;;5012359;28;20015;-65
2022/09/27 18:27:05;;;;;;;1.30;0.85;;;14.90;84.70;;;;;;5012841;28;20018;-65
2022/09/27 18:29:30;;;;;;;1.63;1.02;;;14.90;84.70;;;;;;5013434;28;20076;-65
2022/09/27 18:31:56;;;;;;;1.95;0.93;;;14.90;84.70;;;;;;5013321;28;20026;-65
2022/09/27 18:34:23;;;;;;;3.08;1.10;;;14.90;84.70;;;;;;5013311;28;20091;-66
2022/09/27 18:36:49;;;;;;;1.25;0.98;;;14.90;84.70;;;;;;5012289;28;20038;-66
2022/09/27 18:39:17;;;;;;;4.35;1.10;;;14.90;84.80;;;;;;5007311;28;20041;-65
2022/09/27 18:41:44;;;;;;;3.63;0.90;;;14.90;84.80;;;;;;5007678;28;20049;-66
2022/09/27 18:44:12;;;;;;;1.70;0.90;;;14.90;84.80;;;;;;5013279;28;20037;-65
2022/09/27 18:46:38;;;;;;;2.85;0.80;;;14.90;84.80;;;;;;5012326;28;20021;-65
2022/09/27 18:49:06;;;;;;;7.05;1.00;;;14.90;84.80;;;;;;5013360;28;20032;-65
2022/09/27 18:51:36;;;;;;;3.60;1.23;;;14.90;84.80;;;;;;4991845;28;20451;-65
2022/09/27 18:54:04;;;;;;;3.95;1.10;;;14.90;84.90;;;;;;5005633;28;20048;-65
2022/09/27 18:56:30;;;;;;;5.07;2.10;;;14.90;84.90;;;;;;4983573;28;20435;-65
2022/09/27 18:58:56;;;;;;;4.15;1.45;;;14.90;84.90;;;;;;5008953;28;20018;-65
2022/09/27 19:01:24;;;;;;;4.75;2.30;;;14.90;84.90;;;;;;5012780;28;20026;-66
2022/09/27 19:03:50;;;;;;;2.30;0.80;;;14.90;85.00;;;;;;4995353;28;20064;-65
2022/09/27 19:06:21;;;;;;;3.15;1.17;;;14.90;85.00;;;;;;5011858;28;20057;-65
2022/09/27 19:09:00;;;;;;;6.32;1.60;;;14.90;84.90;;;;;;5011733;28;20090;-65
2022/09/27 19:11:27;;;;;;;6.38;1.75;;;14.90;85.00;;;;;;4995068;28;20395;-66
2022/09/27 19:13:55;;;;;;;11.20;2.25;;;14.90;85.00;;;;;;4993697;28;20430;-65
2022/09/27 19:16:22;;;;;;;6.78;2.58;;;14.90;85.00;;;;;;4993004;28;20129;-66
2022/09/27 19:18:48;;;;;;;5.60;1.45;;;14.90;85.00;;;;;;4995235;28;20029;-65
2022/09/27 19:21:27;;;;;;;8.88;2.22;;;14.90;85.00;;;;;;5012785;28;20084;-66
2022/09/27 19:23:56;;;;;;;1.33;1.10;;;14.90;85.00;;;;;;5013186;28;20513;-65
2022/09/27 19:26:28;;;;;;;1.38;0.98;;;14.90;85.80;;;;;;4992635;28;20491;-65
2022/09/27 19:28:54;;;;;;;3.50;1.42;;;14.90;85.10;;;;;;5012058;28;20030;-65
2022/09/27 19:31:24;;;;;;;2.42;1.30;;;14.90;85.10;;;;;;5011944;28;20082;-66
2022/09/27 19:33:51;;;;;;;4.18;1.02;;;14.90;85.10;;;;;;5012101;28;20072;-65
2022/09/27 19:36:19;;;;;;;5.70;1.27;;;14.90;85.10;;;;;;4993904;28;20037;-65
2022/09/27 19:38:45;;;;;;;2.33;1.10;;;14.90;85.10;;;;;;4991574;28;20069;-65
2022/09/27 19:41:13;;;;;;;5.45;1.05;;;14.90;85.10;;;;;;4992558;28;20105;-65
2022/09/27 19:43:40;;;;;;;4.10;0.60;;;14.90;85.20;;;;;;5011843;28;20026;-65
2022/09/27 19:46:08;;;;;;;0.50;0.50;;;14.90;85.20;;;;;;5011411;28;20022;-66
2022/09/27 19:48:50;;;;;;;3.65;1.08;;;14.90;85.20;;;;;;4996283;28;20065;-65
2022/09/27 19:51:42;;;;;;;0.60;0.50;;;14.90;85.20;;;;;;4994638;28;20025;-65
2022/09/27 19:54:10;;;;;;;1.42;0.73;;;14.90;85.20;;;;;;4994512;28;20025;-65
2022/09/27 19:56:35;;;;;;;1.40;0.70;;;14.90;85.20;;;;;;5010682;28;20050;-65
2022/09/27 19:59:01;;;;;;;0.50;0.50;;;14.90;85.20;;;;;;4994556;28;20471;-65
2022/09/27 20:01:31;;;;;;;2.28;0.80;;;14.90;85.20;;;;;;4994355;28;20064;-65
2022/09/27 20:30:28;;;;;;;1.98;0.60;;;14.80;85.20;;;;;;4885652;29;20159;-68
2022/09/27 20:50:10;;;;;;;0.70;0.70;;;14.80;85.20;;;;;;4849532;29;20084;-65
2022/09/27 20:52:47;;;;;;;1.00;0.75;;;14.80;85.20;;;;;;4845700;29;20128;-65
2022/09/27 20:55:17;;;;;;;1.33;0.90;;;14.80;85.20;;;;;;4844126;29;20456;-65
2022/09/27 20:57:46;;;;;;;1.35;0.73;;;14.80;85.20;;;;;;4847455;29;20044;-65
2022/09/27 21:13:04;;;;;;;0.40;0.40;;;14.80;85.30;;;;;;4854561;29;20131;-65
2022/09/27 21:15:35;;;;;;;0.70;0.65;;;14.80;85.30;;;;;;4875497;29;20089;-66
2022/09/27 21:52:04;;;;;;;0.73;0.68;;;14.70;85.30;;;;;;4874168;29;20526;-65
2022/09/27 21:54:42;;;;;;;1.38;0.60;;;14.70;85.40;;;;;;4858363;29;20085;-69
2022/09/27 22:01:05;;;;;;;1.05;0.80;;;14.70;85.40;;;;;;4885053;29;20036;-65
2022/09/27 22:17:17;;;;;;;1.05;0.80;;;14.70;85.50;;;;;;4873615;29;20048;-65
2022/09/27 22:19:45;;;;;;;1.10;1.00;;;14.70;85.50;;;;;;4873417;29;20052;-66
2022/09/27 22:22:26;;;;;;;2.45;1.08;;;14.70;85.50;;;;;;4873251;29;20131;-65
2022/09/27 22:52:16;;;;;;;0.93;0.82;;;14.70;85.70;;;;;;4906359;29;20107;-65
2022/09/27 22:55:37;;;;;;;2.42;1.20;;;14.70;85.70;;;;;;4937807;29;20126;-65
2022/09/27 22:58:03;;;;;;;0.63;0.63;;;14.70;85.70;;;;;;4930705;29;20402;-66
2022/09/27 23:00:32;;;;;;;1.00;1.00;;;14.70;85.70;;;;;;4933335;29;20058;-66
2022/09/27 23:03:02;;;;;;;2.50;0.80;;;14.70;85.70;;;;;;4932574;29;20206;-66
2022/09/27 23:05:36;;;;;;;0.80;0.77;;;14.70;85.70;;;;;;4931700;29;20064;-66
2022/09/27 23:08:01;;;;;;;1.75;0.80;;;14.70;85.80;;;;;;4943470;29;20023;-66
2022/09/27 23:10:34;;;;;;;1.00;0.90;;;14.70;85.80;;;;;;4951755;29;20118;-66
2022/09/27 23:13:09;;;;;;;1.70;1.00;;;14.70;85.80;;;;;;4934844;29;20560;-66
2022/09/27 23:15:35;;;;;;;1.50;0.80;;;14.80;85.90;;;;;;4951822;29;20437;-66
2022/09/27 23:28:24;;;;;;;1.33;0.90;;;14.70;85.90;;;;;;4864715;29;20080;-65
